Trail City, South Dakota
Current Conditions -  °F | °C
As of 6:52 PM on Saturday 25 Oct 2014 (Local Time) from KMBG Reporting Station
Clear Clear  
Wind Chill: 55°   Ceiling: Unl
Heat Index: 55°   Visibility: 10mi
Dew Point: 32°   Wind: 14mph
Humidity: 42%   Direction: 130°SE
Pressure: 29.98"   Gusts: NA
Location:  45.47°N, 100.72°W
Report Text: KMBG 260052Z AUTO 13012KT 10SM CLR 13/00 A2998 RMK AO2 SLP160 T01280000
Loading
Personal Weather Stations






























Interactive Weather Map
Tropical Storm Tracking
New forecast layout! Learn more

10-Day Weather Forecast

Advertisements
Track Severe Weather on mobile